OPLA/LHE METAR and TAF weather

Enter ICAO airport designator
Station Type Date Time Source
OPLA METAR 2019/08/20 09:55 UTC NOAA

OPLA 200955Z 31009KT 6000 FEW040 SCT100 38/23 Q1005 NOSIG RMK QFE979 RMK A29.66


Station Type Date Time Source
OPLA Decoded METAR 2019/08/20 09:55 UTC NOAA

Lahore Airport, Pakistan (OPLA) 31-31N 074-24E 217M
Aug 20, 2019 - 05:55 AM EDT / 2019.08.20 0955 UTC
Wind: from the NW (310 degrees) at 10 MPH (9 KT):0
Visibility: 3 mile(s):0
Sky conditions: partly cloudy
Temperature: 100 F (38 C)
Heat index: 110.8 F (43.8 C):1
Dew Point: 73 F (23 C)
Relative Humidity: 42%
Pressure (altimeter): 29.68 in. Hg (1005 hPa)
ob: OPLA 200955Z 31009KT 6000 FEW040 SCT100 38/23 Q1005 NOSIG RMK QFE979 RMK A29.66
cycle: 10

Station Type Date Time Source
OPLA TAF 2019/08/20 12:08 UTC NOAA

TAF OPLA 200945Z 2012/2118 30006KT 5000 HZ FEW040 TX38/2110Z TN26/2100Z
FM201600 31005KT 4000 FU NSC
BECMG 2100/2103 VRB03KT 3000 FU SCT100
FM210600 29006KT 6000 FEW040 SCT100

Example: see airport list